sensor_id;sensor_type;location;lat;lon;timestamp;pressure;altitude;pressure_sealevel;temperature;humidity
18819;BME280;9537;45.594;9.294;2023-04-23T00:00:15;99356.75;;;14.10;83.50
18819;BME280;9537;45.594;9.294;2023-04-23T00:01:25;99360.22;;;14.10;83.62
18819;BME280;9537;45.594;9.294;2023-04-23T00:02:32;99360.03;;;14.12;83.57
18819;BME280;9537;45.594;9.294;2023-04-23T00:03:40;99360.44;;;14.15;83.14
18819;BME280;9537;45.594;9.294;2023-04-23T00:04:49;99359.63;;;14.15;82.79
18819;BME280;9537;45.594;9.294;2023-04-23T00:05:57;99360.03;;;14.12;83.26
18819;BME280;9537;45.594;9.294;2023-04-23T00:07:04;99357.56;;;14.10;83.18
18819;BME280;9537;45.594;9.294;2023-04-23T00:08:11;99352.06;;;14.12;83.40
18819;BME280;9537;45.594;9.294;2023-04-23T00:09:18;99347.19;;;14.09;82.82
18819;BME280;9537;45.594;9.294;2023-04-23T00:10:28;99347.19;;;14.09;83.02
18819;BME280;9537;45.594;9.294;2023-04-23T00:11:34;99345.94;;;14.05;83.12
18819;BME280;9537;45.594;9.294;2023-04-23T00:12:42;99347.78;;;14.04;83.21
18819;BME280;9537;45.594;9.294;2023-04-23T00:13:48;99355.16;;;14.02;83.34
18819;BME280;9537;45.594;9.294;2023-04-23T00:15:00;99341.03;;;14.02;83.08
18819;BME280;9537;45.594;9.294;2023-04-23T00:16:07;99338.19;;;14.03;83.24
18819;BME280;9537;45.594;9.294;2023-04-23T00:17:15;99342.47;;;14.04;83.40
18819;BME280;9537;45.594;9.294;2023-04-23T00:18:21;99345.94;;;14.05;82.99
18819;BME280;9537;45.594;9.294;2023-04-23T00:19:28;99340.22;;;14.01;82.92
18819;BME280;9537;45.594;9.294;2023-04-23T00:20:34;99349.41;;;13.98;83.26
18819;BME280;9537;45.594;9.294;2023-04-23T00:21:41;99344.91;;;13.99;83.11
18819;BME280;9537;45.594;9.294;2023-04-23T00:22:47;99346.75;;;13.98;82.85
18819;BME280;9537;45.594;9.294;2023-04-23T00:23:54;99343.91;;;14.00;82.53
18819;BME280;9537;45.594;9.294;2023-04-23T00:25:00;99346.16;;;13.96;82.73
18819;BME280;9537;45.594;9.294;2023-04-23T00:26:07;99336.75;;;13.94;82.99
18819;BME280;9537;45.594;9.294;2023-04-23T00:27:13;99340.81;;;13.90;82.87
18819;BME280;9537;45.594;9.294;2023-04-23T00:28:22;99341.63;;;13.84;83.51
18819;BME280;9537;45.594;9.294;2023-04-23T00:29:28;99346.31;;;13.82;83.28
18819;BME280;9537;45.594;9.294;2023-04-23T00:30:37;99345.09;;;13.84;83.24
18819;BME280;9537;45.594;9.294;2023-04-23T00:31:43;99345.50;;;13.74;83.73
18819;BME280;9537;45.594;9.294;2023-04-23T00:32:50;99336.09;;;13.72;83.70
18819;BME280;9537;45.594;9.294;2023-04-23T00:33:56;99340.19;;;13.74;83.21
18819;BME280;9537;45.594;9.294;2023-04-23T00:35:04;99344.47;;;13.75;83.09
18819;BME280;9537;45.594;9.294;2023-04-23T00:36:10;99341.22;;;13.73;82.95
18819;BME280;9537;45.594;9.294;2023-04-23T00:37:17;99340.38;;;13.73;82.82
18819;BME280;9537;45.594;9.294;2023-04-23T00:38:23;99338.13;;;13.70;83.24
18819;BME280;9537;45.594;9.294;2023-04-23T00:39:31;99338.94;;;13.70;83.34
18819;BME280;9537;45.594;9.294;2023-04-23T00:40:37;99340.75;;;13.70;83.04
18819;BME280;9537;45.594;9.294;2023-04-23T00:41:43;99334.66;;;13.69;83.45
18819;BME280;9537;45.594;9.294;2023-04-23T00:42:50;99332.81;;;13.70;83.07
18819;BME280;9537;45.594;9.294;2023-04-23T00:43:58;99335.06;;;13.73;83.21
18819;BME280;9537;45.594;9.294;2023-04-23T00:45:08;99329.34;;;13.69;83.41
18819;BME280;9537;45.594;9.294;2023-04-23T00:46:16;99327.72;;;13.68;83.21
18819;BME280;9537;45.594;9.294;2023-04-23T00:47:22;99331.78;;;13.64;83.69
18819;BME280;9537;45.594;9.294;2023-04-23T00:48:30;99329.13;;;13.64;83.66
18819;BME280;9537;45.594;9.294;2023-04-23T00:49:33;99332.41;;;13.66;83.55
18819;BME280;9537;45.594;9.294;2023-04-23T00:50:40;99328.31;;;13.64;83.65
18819;BME280;9537;45.594;9.294;2023-04-23T00:51:46;99330.16;;;13.63;83.68
18819;BME280;9537;45.594;9.294;2023-04-23T00:52:53;99331.19;;;13.62;84.14
18819;BME280;9537;45.594;9.294;2023-04-23T00:53:59;99330.34;;;13.62;84.14
18819;BME280;9537;45.594;9.294;2023-04-23T00:55:07;99336.25;;;13.64;84.25
18819;BME280;9537;45.594;9.294;2023-04-23T00:56:13;99335.06;;;13.66;83.84
18819;BME280;9537;45.594;9.294;2023-04-23T00:57:21;99330.97;;;13.64;84.39
18819;BME280;9537;45.594;9.294;2023-04-23T00:58:28;99330.97;;;13.64;84.23
18819;BME280;9537;45.594;9.294;2023-04-23T00:59:35;99323.63;;;13.66;84.22
18819;BME280;9537;45.594;9.294;2023-04-23T01:00:43;99322.41;;;13.68;83.83
18819;BME280;9537;45.594;9.294;2023-04-23T01:01:55;99317.91;;;13.69;83.56
18819;BME280;9537;45.594;9.294;2023-04-23T01:03:01;99328.13;;;13.65;83.97
18819;BME280;9537;45.594;9.294;2023-04-23T01:04:08;99327.28;;;13.65;83.57
18819;BME280;9537;45.594;9.294;2023-04-23T01:05:15;99327.69;;;13.62;83.68
18819;BME280;9537;45.594;9.294;2023-04-23T01:06:23;99326.28;;;13.59;83.96
18819;BME280;9537;45.594;9.294;2023-04-23T01:07:30;99328.53;;;13.62;83.61
18819;BME280;9537;45.594;9.294;2023-04-23T01:08:37;99325.25;;;13.60;83.72
18819;BME280;9537;45.594;9.294;2023-04-23T01:09:45;99326.47;;;13.58;83.75
18819;BME280;9537;45.594;9.294;2023-04-23T01:10:52;99326.84;;;13.55;84.12
18819;BME280;9537;45.594;9.294;2023-04-23T01:11:59;99323.41;;;13.54;84.13
18819;BME280;9537;45.594;9.294;2023-04-23T01:13:07;99327.03;;;13.53;83.98
18819;BME280;9537;45.594;9.294;2023-04-23T01:14:13;99319.09;;;13.53;84.63
18819;BME280;9537;45.594;9.294;2023-04-23T01:15:20;99327.03;;;13.53;84.65
18819;BME280;9537;45.594;9.294;2023-04-23T01:16:26;99325.41;;;13.52;84.61
18819;BME280;9537;45.594;9.294;2023-04-23T01:17:35;99320.94;;;13.52;84.77
18819;BME280;9537;45.594;9.294;2023-04-23T01:18:41;99320.75;;;13.54;84.43
18819;BME280;9537;45.594;9.294;2023-04-23T01:19:44;99332.78;;;13.57;84.31
18819;BME280;9537;45.594;9.294;2023-04-23T01:20:50;99328.06;;;13.59;84.44
18819;BME280;9537;45.594;9.294;2023-04-23T01:21:59;99329.72;;;13.60;84.75
18819;BME280;9537;45.594;9.294;2023-04-23T01:23:07;99328.72;;;13.61;85.03
18819;BME280;9537;45.594;9.294;2023-04-23T01:24:14;99325.66;;;13.64;85.05
18819;BME280;9537;45.594;9.294;2023-04-23T01:25:20;99331.78;;;13.64;84.64
18819;BME280;9537;45.594;9.294;2023-04-23T01:26:27;99334.25;;;13.66;84.75
18819;BME280;9537;45.594;9.294;2023-04-23T01:27:33;99321.59;;;13.68;84.78
18819;BME280;9537;45.594;9.294;2023-04-23T01:28:41;99325.88;;;13.69;85.00
18819;BME280;9537;45.594;9.294;2023-04-23T01:29:48;99327.31;;;13.71;84.64
18819;BME280;9537;45.594;9.294;2023-04-23T01:30:55;99326.91;;;13.74;85.16
18819;BME280;9537;45.594;9.294;2023-04-23T01:32:02;99327.72;;;13.75;85.22
18819;BME280;9537;45.594;9.294;2023-04-23T01:33:09;99322.41;;;13.75;85.09
18819;BME280;9537;45.594;9.294;2023-04-23T01:34:16;99330.78;;;13.72;84.92
18819;BME280;9537;45.594;9.294;2023-04-23T01:35:23;99329.34;;;13.69;84.85
18819;BME280;9537;45.594;9.294;2023-04-23T01:36:30;99338.13;;;13.70;85.13
18819;BME280;9537;45.594;9.294;2023-04-23T01:37:38;99340.75;;;13.70;84.98
18819;BME280;9537;45.594;9.294;2023-04-23T01:38:45;99340.59;;;13.71;85.12
18819;BME280;9537;45.594;9.294;2023-04-23T01:39:52;99338.75;;;13.72;85.42
18819;BME280;9537;45.594;9.294;2023-04-23T01:40:58;99329.75;;;13.73;85.32
18819;BME280;9537;45.594;9.294;2023-04-23T01:42:05;99336.09;;;13.72;85.04
18819;BME280;9537;45.594;9.294;2023-04-23T01:43:11;99325.47;;;13.72;85.05
18819;BME280;9537;45.594;9.294;2023-04-23T01:44:18;99332.00;;;13.69;84.89
18819;BME280;9537;45.594;9.294;2023-04-23T01:45:24;99336.50;;;13.69;84.45
18819;BME280;9537;45.594;9.294;2023-04-23T01:46:31;99328.53;;;13.62;84.32
18819;BME280;9537;45.594;9.294;2023-04-23T01:47:38;99337.06;;;13.64;84.80
18819;BME280;9537;45.594;9.294;2023-04-23T01:48:45;99326.47;;;13.64;84.96
18819;BME280;9537;45.594;9.294;2023-04-23T01:49:51;99334.03;;;13.67;85.57
18819;BME280;9537;45.594;9.294;2023-04-23T01:50:58;99336.28;;;13.70;85.38
18819;BME280;9537;45.594;9.294;2023-04-23T01:52:05;99338.56;;;13.73;85.31
18819;BME280;9537;45.594;9.294;2023-04-23T01:53:12;99331.41;;;13.74;85.28
18819;BME280;9537;45.594;9.294;2023-04-23T01:54:19;99327.09;;;13.73;85.05
18819;BME280;9537;45.594;9.294;2023-04-23T01:55:26;99331.41;;;13.74;85.76
18819;BME280;9537;45.594;9.294;2023-04-23T01:56:32;99328.94;;;13.72;85.93
18819;BME280;9537;45.594;9.294;2023-04-23T01:57:40;99334.47;;;13.71;85.95
18819;BME280;9537;45.594;9.294;2023-04-23T01:58:46;99337.50;;;13.68;86.11
18819;BME280;9537;45.594;9.294;2023-04-23T01:59:57;99341.41;;;13.72;86.01
18819;BME280;9537;45.594;9.294;2023-04-23T02:01:05;99344.47;;;13.75;86.03
18819;BME280;9537;45.594;9.294;2023-04-23T02:02:12;99337.53;;;13.74;86.30
18819;BME280;9537;45.594;9.294;2023-04-23T02:03:19;99342.03;;;13.74;86.37
18819;BME280;9537;45.594;9.294;2023-04-23T02:04:28;99347.72;;;13.71;86.70
18819;BME280;9537;45.594;9.294;2023-04-23T02:05:33;99343.63;;;13.68;87.08
18819;BME280;9537;45.594;9.294;2023-04-23T02:06:36;99344.84;;;13.66;87.00
18819;BME280;9537;45.594;9.294;2023-04-23T02:07:42;99352.81;;;13.66;87.40
18819;BME280;9537;45.594;9.294;2023-04-23T02:08:49;99344.63;;;13.67;86.82
18819;BME280;9537;45.594;9.294;2023-04-23T02:09:57;99350.78;;;13.68;86.84
18819;BME280;9537;45.594;9.294;2023-04-23T02:11:04;99344.44;;;13.69;87.51
18819;BME280;9537;45.594;9.294;2023-04-23T02:12:11;99344.63;;;13.67;87.45
18819;BME280;9537;45.594;9.294;2023-04-23T02:13:18;99347.69;;;13.64;87.88
18819;BME280;9537;45.594;9.294;2023-04-23T02:14:24;99347.28;;;13.61;88.18
18819;BME280;9537;45.594;9.294;2023-04-23T02:15:31;99344.84;;;13.59;88.37
18819;BME280;9537;45.594;9.294;2023-04-23T02:16:37;99334.41;;;13.58;88.24
18819;BME280;9537;45.594;9.294;2023-04-23T02:17:44;99339.13;;;13.62;88.35
18819;BME280;9537;45.594;9.294;2023-04-23T02:18:50;99338.09;;;13.63;88.24
18819;BME280;9537;45.594;9.294;2023-04-23T02:19:57;99339.53;;;13.66;88.22
18819;BME280;9537;45.594;9.294;2023-04-23T02:21:03;99343.81;;;13.67;88.40
18819;BME280;9537;45.594;9.294;2023-04-23T02:22:11;99338.13;;;13.70;88.38
18819;BME280;9537;45.594;9.294;2023-04-23T02:23:12;99338.75;;;13.72;88.42
18819;BME280;9537;45.594;9.294;2023-04-23T02:24:18;99335.06;;;13.73;88.15
18819;BME280;9537;45.594;9.294;2023-04-23T02:25:26;99325.28;;;13.73;88.38
18819;BME280;9537;45.594;9.294;2023-04-23T02:26:28;99329.34;;;13.76;88.14
18819;BME280;9537;45.594;9.294;2023-04-23T02:27:34;99330.59;;;13.73;88.45
18819;BME280;9537;45.594;9.294;2023-04-23T02:28:41;99328.75;;;13.74;88.90
18819;BME280;9537;45.594;9.294;2023-04-23T02:29:48;99335.50;;;13.77;88.74
18819;BME280;9537;45.594;9.294;2023-04-23T02:30:55;99329.34;;;13.76;88.93
18819;BME280;9537;45.594;9.294;2023-04-23T02:32:01;99336.72;;;13.74;88.99
18819;BME280;9537;45.594;9.294;2023-04-23T02:33:08;99332.81;;;13.70;88.90
18819;BME280;9537;45.594;9.294;2023-04-23T02:34:14;99339.13;;;13.69;89.26
18819;BME280;9537;45.594;9.294;2023-04-23T02:35:21;99344.03;;;13.65;89.38
18819;BME280;9537;45.594;9.294;2023-04-23T02:36:28;99344.22;;;13.64;89.15
18819;BME280;9537;45.594;9.294;2023-04-23T02:37:37;99337.69;;;13.66;89.27
18819;BME280;9537;45.594;9.294;2023-04-23T02:38:43;99337.28;;;13.63;89.02
18819;BME280;9537;45.594;9.294;2023-04-23T02:39:52;99331.97;;;13.63;89.34
18819;BME280;9537;45.594;9.294;2023-04-23T02:40:59;99334.44;;;13.64;89.28
18819;BME280;9537;45.594;9.294;2023-04-23T02:42:06;99327.28;;;13.65;89.45
18819;BME280;9537;45.594;9.294;2023-04-23T02:43:12;99329.34;;;13.63;89.27
18819;BME280;9537;45.594;9.294;2023-04-23T02:44:19;99328.31;;;13.64;88.96
18819;BME280;9537;45.594;9.294;2023-04-23T02:45:25;99321.78;;;13.66;89.06
18819;BME280;9537;45.594;9.294;2023-04-23T02:46:32;99317.06;;;13.62;88.98
18819;BME280;9537;45.594;9.294;2023-04-23T02:47:38;99322.19;;;13.63;89.31
18819;BME280;9537;45.594;9.294;2023-04-23T02:48:45;99328.94;;;13.66;88.99
18819;BME280;9537;45.594;9.294;2023-04-23T02:49:51;99329.56;;;13.68;89.26
18819;BME280;9537;45.594;9.294;2023-04-23T02:50:58;99325.25;;;13.67;89.18
18819;BME280;9537;45.594;9.294;2023-04-23T02:52:04;99319.94;;;13.67;88.98
18819;BME280;9537;45.594;9.294;2023-04-23T02:53:11;99321.59;;;13.68;89.33
18819;BME280;9537;45.594;9.294;2023-04-23T02:54:17;99328.94;;;13.66;89.48
18819;BME280;9537;45.594;9.294;2023-04-23T02:55:25;99327.91;;;13.67;89.10
18819;BME280;9537;45.594;9.294;2023-04-23T02:56:35;99325.88;;;13.69;89.35
18819;BME280;9537;45.594;9.294;2023-04-23T02:57:42;99322.19;;;13.70;89.25
18819;BME280;9537;45.594;9.294;2023-04-23T02:58:44;99324.03;;;13.69;89.75
18819;BME280;9537;45.594;9.294;2023-04-23T02:59:51;99323.22;;;13.69;89.55
18819;BME280;9537;45.594;9.294;2023-04-23T03:00:57;99326.69;;;13.69;89.73
18819;BME280;9537;45.594;9.294;2023-04-23T03:02:04;99327.28;;;13.65;89.99
18819;BME280;9537;45.594;9.294;2023-04-23T03:03:10;99327.28;;;13.65;90.46
18819;BME280;9537;45.594;9.294;2023-04-23T03:04:17;99318.31;;;13.66;90.45
18819;BME280;9537;45.594;9.294;2023-04-23T03:05:23;99325.66;;;13.64;90.41
18819;BME280;9537;45.594;9.294;2023-04-23T03:06:29;99326.69;;;13.63;90.62
18819;BME280;9537;45.594;9.294;2023-04-23T03:07:36;99333.81;;;13.62;90.33
18819;BME280;9537;45.594;9.294;2023-04-23T03:08:43;99329.13;;;13.64;90.76
18819;BME280;9537;45.594;9.294;2023-04-23T03:09:49;99331.59;;;13.66;90.58
18819;BME280;9537;45.594;9.294;2023-04-23T03:10:56;99336.25;;;13.64;91.00
18819;BME280;9537;45.594;9.294;2023-04-23T03:11:58;99328.13;;;13.65;90.68
18819;BME280;9537;45.594;9.294;2023-04-23T03:13:05;99329.13;;;13.64;90.94
18819;BME280;9537;45.594;9.294;2023-04-23T03:14:11;99328.94;;;13.66;90.94
18819;BME280;9537;45.594;9.294;2023-04-23T03:15:18;99333.81;;;13.62;91.04
18819;BME280;9537;45.594;9.294;2023-04-23T03:16:26;99332.16;;;13.61;91.00
18819;BME280;9537;45.594;9.294;2023-04-23T03:17:33;99325.03;;;13.62;90.88
18819;BME280;9537;45.594;9.294;2023-04-23T03:18:39;99328.53;;;13.62;90.54
18819;BME280;9537;45.594;9.294;2023-04-23T03:19:46;99326.88;;;13.61;90.34
18819;BME280;9537;45.594;9.294;2023-04-23T03:20:51;99329.34;;;13.63;90.37
18819;BME280;9537;45.594;9.294;2023-04-23T03:21:58;99319.72;;;13.62;90.10
18819;BME280;9537;45.594;9.294;2023-04-23T03:23:04;99324.84;;;13.63;90.17
18819;BME280;9537;45.594;9.294;2023-04-23T03:24:12;99318.72;;;13.63;90.36
18819;BME280;9537;45.594;9.294;2023-04-23T03:25:19;99310.53;;;13.64;90.36
18819;BME280;9537;45.594;9.294;2023-04-23T03:26:28;99313.00;;;13.66;90.58
18819;BME280;9537;45.594;9.294;2023-04-23T03:27:37;99304.00;;;13.67;90.64
18819;BME280;9537;45.594;9.294;2023-04-23T03:28:44;99304.81;;;13.67;90.44
18819;BME280;9537;45.594;9.294;2023-04-23T03:29:50;99293.41;;;13.67;90.84
18819;BME280;9537;45.594;9.294;2023-04-23T03:30:57;99302.81;;;13.69;90.61
18819;BME280;9537;45.594;9.294;2023-04-23T03:32:05;99294.03;;;13.69;90.99
18819;BME280;9537;45.594;9.294;2023-04-23T03:33:12;99308.50;;;13.66;91.13
18819;BME280;9537;45.594;9.294;2023-04-23T03:34:18;99300.56;;;13.66;91.50
18819;BME280;9537;45.594;9.294;2023-04-23T03:35:25;99303.19;;;13.66;91.29
18819;BME280;9537;45.594;9.294;2023-04-23T03:36:31;99301.56;;;13.65;91.32
18819;BME280;9537;45.594;9.294;2023-04-23T03:37:38;99307.06;;;13.64;91.48
18819;BME280;9537;45.594;9.294;2023-04-23T03:38:43;99300.16;;;13.63;91.52
18819;BME280;9537;45.594;9.294;2023-04-23T03:39:51;99304.63;;;13.62;91.33
18819;BME280;9537;45.594;9.294;2023-04-23T03:40:56;99300.16;;;13.63;91.16
18819;BME280;9537;45.594;9.294;2023-04-23T03:42:03;99308.91;;;13.63;91.39
18819;BME280;9537;45.594;9.294;2023-04-23T03:43:11;99315.25;;;13.62;91.32
18819;BME280;9537;45.594;9.294;2023-04-23T03:44:18;99310.94;;;13.61;91.15
18819;BME280;9537;45.594;9.294;2023-04-23T03:45:24;99314.63;;;13.60;91.33
18819;BME280;9537;45.594;9.294;2023-04-23T03:46:34;99317.28;;;13.60;91.42
18819;BME280;9537;45.594;9.294;2023-04-23T03:47:41;99309.91;;;13.56;91.54
18819;BME280;9537;45.594;9.294;2023-04-23T03:48:51;99318.50;;;13.58;91.48
18819;BME280;9537;45.594;9.294;2023-04-23T03:49:57;99315.22;;;13.56;91.72
18819;BME280;9537;45.594;9.294;2023-04-23T03:51:04;99311.56;;;13.57;91.96
18819;BME280;9537;45.594;9.294;2023-04-23T03:52:09;99308.06;;;13.56;91.83
18819;BME280;9537;45.594;9.294;2023-04-23T03:53:16;99313.19;;;13.58;91.78
18819;BME280;9537;45.594;9.294;2023-04-23T03:54:22;99299.91;;;13.58;91.76
18819;BME280;9537;45.594;9.294;2023-04-23T03:55:31;99309.50;;;13.59;91.29
18819;BME280;9537;45.594;9.294;2023-04-23T03:56:37;99311.16;;;13.60;91.37
18819;BME280;9537;45.594;9.294;2023-04-23T03:57:44;99315.84;;;13.58;91.61
18819;BME280;9537;45.594;9.294;2023-04-23T03:58:51;99306.25;;;13.57;91.75
18819;BME280;9537;45.594;9.294;2023-04-23T03:59:58;99310.13;;;13.54;92.26
18819;BME280;9537;45.594;9.294;2023-04-23T04:01:04;99312.16;;;13.52;91.95
18819;BME280;9537;45.594;9.294;2023-04-23T04:02:11;99317.66;;;13.50;92.28
18819;BME280;9537;45.594;9.294;2023-04-23T04:03:17;99316.44;;;13.53;91.96
18819;BME280;9537;45.594;9.294;2023-04-23T04:04:24;99311.53;;;13.50;91.85
18819;BME280;9537;45.594;9.294;2023-04-23T04:05:30;99314.19;;;13.50;92.68
18819;BME280;9537;45.594;9.294;2023-04-23T04:06:37;99313.38;;;13.49;92.36
18819;BME280;9537;45.594;9.294;2023-04-23T04:07:43;99310.94;;;13.48;92.76
18819;BME280;9537;45.594;9.294;2023-04-23T04:08:50;99311.53;;;13.50;92.34
18819;BME280;9537;45.594;9.294;2023-04-23T04:09:56;99308.06;;;13.49;92.75
18819;BME280;9537;45.594;9.294;2023-04-23T04:11:03;99308.06;;;13.49;92.03
18819;BME280;9537;45.594;9.294;2023-04-23T04:12:09;99308.69;;;13.51;92.29
18819;BME280;9537;45.594;9.294;2023-04-23T04:13:16;99307.88;;;13.51;91.79
18819;BME280;9537;45.594;9.294;2023-04-23T04:14:24;99306.03;;;13.51;91.71
18819;BME280;9537;45.594;9.294;2023-04-23T04:15:31;99304.19;;;13.52;92.33
18819;BME280;9537;45.594;9.294;2023-04-23T04:16:37;99301.53;;;13.52;92.28
18819;BME280;9537;45.594;9.294;2023-04-23T04:17:44;99301.94;;;13.49;92.16
18819;BME280;9537;45.594;9.294;2023-04-23T04:18:50;99293.75;;;13.50;92.05
18819;BME280;9537;45.594;9.294;2023-04-23T04:19:57;99297.03;;;13.52;92.10
18819;BME280;9537;45.594;9.294;2023-04-23T04:21:03;99300.31;;;13.55;92.30
18819;BME280;9537;45.594;9.294;2023-04-23T04:22:10;99306.44;;;13.55;91.84
18819;BME280;9537;45.594;9.294;2023-04-23T04:23:16;99308.06;;;13.56;91.67
18819;BME280;9537;45.594;9.294;2023-04-23T04:24:23;99310.72;;;13.56;92.22
18819;BME280;9537;45.594;9.294;2023-04-23T04:25:29;99304.00;;;13.54;92.14
18819;BME280;9537;45.594;9.294;2023-04-23T04:26:37;99311.97;;;13.54;92.10
18819;BME280;9537;45.594;9.294;2023-04-23T04:27:43;99312.56;;;13.49;92.21
18819;BME280;9537;45.594;9.294;2023-04-23T04:28:50;99302.75;;;13.49;92.63
18819;BME280;9537;45.594;9.294;2023-04-23T04:29:58;99305.41;;;13.49;92.24
18819;BME280;9537;45.594;9.294;2023-04-23T04:31:06;99299.28;;;13.49;92.38
18819;BME280;9537;45.594;9.294;2023-04-23T04:32:13;99293.75;;;13.50;92.46
18819;BME280;9537;45.594;9.294;2023-04-23T04:33:20;99296.41;;;13.50;92.30
18819;BME280;9537;45.594;9.294;2023-04-23T04:34:26;99296.22;;;13.52;92.72
18819;BME280;9537;45.594;9.294;2023-04-23T04:35:33;99294.00;;;13.56;92.13
18819;BME280;9537;45.594;9.294;2023-04-23T04:36:39;99294.81;;;13.56;92.42
18819;BME280;9537;45.594;9.294;2023-04-23T04:37:46;99295.84;;;13.55;92.50
18819;BME280;9537;45.594;9.294;2023-04-23T04:38:54;99304.00;;;13.54;92.62
18819;BME280;9537;45.594;9.294;2023-04-23T04:40:03;99294.81;;;13.56;92.42
18819;BME280;9537;45.594;9.294;2023-04-23T04:41:12;99301.53;;;13.59;92.27
18819;BME280;9537;45.594;9.294;2023-04-23T04:42:18;99307.69;;;13.59;92.05
18819;BME280;9537;45.594;9.294;2023-04-23T04:43:24;99307.25;;;13.56;92.41
18819;BME280;9537;45.594;9.294;2023-04-23T04:44:31;99305.41;;;13.56;91.94
18819;BME280;9537;45.594;9.294;2023-04-23T04:45:39;99306.25;;;13.57;92.23
18819;BME280;9537;45.594;9.294;2023-04-23T04:46:45;99308.28;;;13.55;92.53
18819;BME280;9537;45.594;9.294;2023-04-23T04:47:52;99301.94;;;13.56;92.62
18819;BME280;9537;45.594;9.294;2023-04-23T04:48:59;99305.63;;;13.55;92.26
18819;BME280;9537;45.594;9.294;2023-04-23T04:50:06;99308.91;;;13.57;92.64
18819;BME280;9537;45.594;9.294;2023-04-23T04:51:13;99310.53;;;13.58;92.55
18819;BME280;9537;45.594;9.294;2023-04-23T04:52:19;99311.34;;;13.58;92.35
18819;BME280;9537;45.594;9.294;2023-04-23T04:53:21;99315.66;;;13.59;92.42
18819;BME280;9537;45.594;9.294;2023-04-23T04:54:27;99314.41;;;13.62;92.32
18819;BME280;9537;45.594;9.294;2023-04-23T04:55:33;99317.91;;;13.62;92.36
18819;BME280;9537;45.594;9.294;2023-04-23T04:56:40;99316.25;;;13.61;92.13
18819;BME280;9537;45.594;9.294;2023-04-23T04:57:47;99316.06;;;13.63;91.84
18819;BME280;9537;45.594;9.294;2023-04-23T04:58:53;99318.72;;;13.63;92.27
18819;BME280;9537;45.594;9.294;2023-04-23T05:00:01;99318.50;;;13.64;92.22
18819;BME280;9537;45.594;9.294;2023-04-23T05:01:25;99316.47;;;13.66;92.04
18819;BME280;9537;45.594;9.294;2023-04-23T05:02:33;99319.13;;;13.66;91.85
18819;BME280;9537;45.594;9.294;2023-04-23T05:03:39;99323.41;;;13.67;91.59
18819;BME280;9537;45.594;9.294;2023-04-23T05:04:46;99325.25;;;13.67;92.18
18819;BME280;9537;45.594;9.294;2023-04-23T05:05:52;99322.19;;;13.70;92.36
18819;BME280;9537;45.594;9.294;2023-04-23T05:07:01;99328.53;;;13.69;92.40
18819;BME280;9537;45.594;9.294;2023-04-23T05:08:06;99325.66;;;13.70;92.16
18819;BME280;9537;45.594;9.294;2023-04-23T05:09:14;99325.66;;;13.70;92.49
18819;BME280;9537;45.594;9.294;2023-04-23T05:10:21;99314.84;;;13.72;92.23
18819;BME280;9537;45.594;9.294;2023-04-23T05:11:27;99318.31;;;13.72;92.91
18819;BME280;9537;45.594;9.294;2023-04-23T05:12:34;99316.47;;;13.73;92.48
18819;BME280;9537;45.594;9.294;2023-04-23T05:13:39;99313.00;;;13.72;92.82
18819;BME280;9537;45.594;9.294;2023-04-23T05:14:47;99312.00;;;13.73;93.04
18819;BME280;9537;45.594;9.294;2023-04-23T05:15:54;99318.72;;;13.76;92.63
18819;BME280;9537;45.594;9.294;2023-04-23T05:17:01;99305.66;;;13.74;93.17
18819;BME280;9537;45.594;9.294;2023-04-23T05:18:09;99305.44;;;13.76;93.14
18819;BME280;9537;45.594;9.294;2023-04-23T05:19:15;99305.28;;;13.78;92.85
18819;BME280;9537;45.594;9.294;2023-04-23T05:20:22;99308.72;;;13.78;93.08
18819;BME280;9537;45.594;9.294;2023-04-23T05:21:28;99309.34;;;13.80;93.59
18819;BME280;9537;45.594;9.294;2023-04-23T05:22:36;99310.97;;;13.81;93.47
18819;BME280;9537;45.594;9.294;2023-04-23T05:23:42;99316.91;;;13.83;93.66
18819;BME280;9537;45.594;9.294;2023-04-23T05:24:44;99311.38;;;13.85;93.66
18819;BME280;9537;45.594;9.294;2023-04-23T05:25:51;99311.59;;;13.83;93.85
18819;BME280;9537;45.594;9.294;2023-04-23T05:27:00;99318.53;;;13.84;94.04
18819;BME280;9537;45.594;9.294;2023-04-23T05:28:07;99318.13;;;13.81;93.91
18819;BME280;9537;45.594;9.294;2023-04-23T05:29:14;99313.44;;;13.83;93.96
18819;BME280;9537;45.594;9.294;2023-04-23T05:30:24;99320.59;;;13.82;94.24
18819;BME280;9537;45.594;9.294;2023-04-23T05:31:31;99326.91;;;13.81;93.76
18819;BME280;9537;45.594;9.294;2023-04-23T05:32:38;99316.91;;;13.83;93.79
18819;BME280;9537;45.594;9.294;2023-04-23T05:33:45;99324.06;;;13.83;94.14
18819;BME280;9537;45.594;9.294;2023-04-23T05:34:51;99323.25;;;13.82;93.94
18819;BME280;9537;45.594;9.294;2023-04-23T05:35:58;99318.75;;;13.83;94.08
18819;BME280;9537;45.594;9.294;2023-04-23T05:37:05;99324.88;;;13.83;94.43
18819;BME280;9537;45.594;9.294;2023-04-23T05:38:11;99324.06;;;13.83;94.71
18819;BME280;9537;45.594;9.294;2023-04-23T05:39:18;99329.38;;;13.83;94.71
18819;BME280;9537;45.594;9.294;2023-04-23T05:40:19;99335.50;;;13.83;94.75
18819;BME280;9537;45.594;9.294;2023-04-23T05:41:27;99330.81;;;13.85;94.42
18819;BME280;9537;45.594;9.294;2023-04-23T05:42:34;99321.19;;;13.84;94.61
18819;BME280;9537;45.594;9.294;2023-04-23T05:43:41;99332.84;;;13.83;94.54
18819;BME280;9537;45.594;9.294;2023-04-23T05:44:48;99327.31;;;13.85;94.79
18819;BME280;9537;45.594;9.294;2023-04-23T05:45:54;99330.81;;;13.85;94.58
18819;BME280;9537;45.594;9.294;2023-04-23T05:47:01;99328.97;;;13.86;95.15
18819;BME280;9537;45.594;9.294;2023-04-23T05:48:08;99329.16;;;13.84;95.46
18819;BME280;9537;45.594;9.294;2023-04-23T05:49:15;99329.97;;;13.85;95.18
18819;BME280;9537;45.594;9.294;2023-04-23T05:50:22;99328.16;;;13.85;95.69
18819;BME280;9537;45.594;9.294;2023-04-23T05:51:29;99329.97;;;13.85;96.04
18819;BME280;9537;45.594;9.294;2023-04-23T05:52:35;99337.13;;;13.84;95.85
18819;BME280;9537;45.594;9.294;2023-04-23T05:53:42;99337.13;;;13.84;96.20
18819;BME280;9537;45.594;9.294;2023-04-23T05:54:48;99338.56;;;13.87;95.74
18819;BME280;9537;45.594;9.294;2023-04-23T05:55:50;99336.53;;;13.89;95.79
18819;BME280;9537;45.594;9.294;2023-04-23T05:56:56;99332.84;;;13.90;95.44
18819;BME280;9537;45.594;9.294;2023-04-23T05:58:03;99338.16;;;13.90;95.24